sensor_id;sensor_type;location;lat;lon;timestamp;pressure;altitude;pressure_sealevel;temperature;humidity
37856;BME280;23694;43.274;26.924;2023-02-18T00:00:21;99371.78;;;8.87;45.07
37856;BME280;23694;43.274;26.924;2023-02-18T00:02:48;99366.47;;;8.89;44.80
37856;BME280;23694;43.274;26.924;2023-02-18T00:05:15;99368.09;;;8.92;44.41
37856;BME280;23694;43.274;26.924;2023-02-18T00:07:41;99352.41;;;8.92;44.93
37856;BME280;23694;43.274;26.924;2023-02-18T00:10:11;99357.63;;;8.92;45.50
37856;BME280;23694;43.274;26.924;2023-02-18T00:12:37;99343.31;;;8.83;45.72
37856;BME280;23694;43.274;26.924;2023-02-18T00:15:04;99338.94;;;8.83;45.44
37856;BME280;23694;43.274;26.924;2023-02-18T00:17:30;99339.84;;;8.82;45.34
37856;BME280;23694;43.274;26.924;2023-02-18T00:19:56;99325.28;;;8.78;45.27
37856;BME280;23694;43.274;26.924;2023-02-18T00:22:23;99333.28;;;8.91;45.31
37856;BME280;23694;43.274;26.924;2023-02-18T00:24:49;99330.16;;;8.84;45.10
37856;BME280;23694;43.274;26.924;2023-02-18T00:27:16;99325.53;;;8.89;44.92
37856;BME280;23694;43.274;26.924;2023-02-18T00:29:42;99328.13;;;8.89;44.99
37856;BME280;23694;43.274;26.924;2023-02-18T00:32:08;99324.00;;;8.85;44.74
37856;BME280;23694;43.274;26.924;2023-02-18T00:34:34;99318.13;;;8.82;44.61
37856;BME280;23694;43.274;26.924;2023-02-18T00:37:00;99323.00;;;8.88;45.15
37856;BME280;23694;43.274;26.924;2023-02-18T00:39:26;99317.28;;;8.81;45.51
37856;BME280;23694;43.274;26.924;2023-02-18T00:41:52;99325.88;;;8.83;44.73
37856;BME280;23694;43.274;26.924;2023-02-18T00:44:18;99322.31;;;8.84;44.21
37856;BME280;23694;43.274;26.924;2023-02-18T00:46:44;99334.88;;;8.78;44.50
37856;BME280;23694;43.274;26.924;2023-02-18T00:49:13;99329.50;;;8.81;45.30
37856;BME280;23694;43.274;26.924;2023-02-18T00:51:39;99334.72;;;8.81;45.03
37856;BME280;23694;43.274;26.924;2023-02-18T00:54:05;99332.59;;;8.72;45.01
37856;BME280;23694;43.274;26.924;2023-02-18T00:56:31;99318.78;;;8.70;45.32
37856;BME280;23694;43.274;26.924;2023-02-18T00:58:57;99323.84;;;8.73;45.51
37856;BME280;23694;43.274;26.924;2023-02-18T01:01:23;99315.41;;;8.68;44.84
37856;BME280;23694;43.274;26.924;2023-02-18T01:03:50;99312.03;;;8.50;46.15
37856;BME280;23694;43.274;26.924;2023-02-18T01:06:16;99312.81;;;8.52;45.80
37856;BME280;23694;43.274;26.924;2023-02-18T01:08:42;99298.38;;;8.45;46.02
37856;BME280;23694;43.274;26.924;2023-02-18T01:11:10;99302.53;;;8.49;45.73
37856;BME280;23694;43.274;26.924;2023-02-18T01:13:37;99287.94;;;8.45;46.14
37856;BME280;23694;43.274;26.924;2023-02-18T01:16:04;99282.50;;;8.32;46.32
37856;BME280;23694;43.274;26.924;2023-02-18T01:18:30;99280.34;;;8.40;45.63
37856;BME280;23694;43.274;26.924;2023-02-18T01:20:57;99285.09;;;8.49;45.49
37856;BME280;23694;43.274;26.924;2023-02-18T01:23:23;99279.72;;;8.52;45.49
37856;BME280;23694;43.274;26.924;2023-02-18T01:25:49;99276.09;;;8.55;45.17
37856;BME280;23694;43.274;26.924;2023-02-18T01:28:16;99279.72;;;8.52;44.73
37856;BME280;23694;43.274;26.924;2023-02-18T01:30:43;99278.69;;;8.55;44.56
37856;BME280;23694;43.274;26.924;2023-02-18T01:33:09;99280.38;;;8.56;45.18
37856;BME280;23694;43.274;26.924;2023-02-18T01:35:37;99286.53;;;8.55;45.10
37856;BME280;23694;43.274;26.924;2023-02-18T01:38:04;99277.00;;;8.54;44.85
37856;BME280;23694;43.274;26.924;2023-02-18T01:40:30;99284.84;;;8.54;45.10
37856;BME280;23694;43.274;26.924;2023-02-18T01:42:56;99277.44;;;8.46;45.17
37856;BME280;23694;43.274;26.924;2023-02-18T01:48:12;99278.91;;;8.35;45.45
37856;BME280;23694;43.274;26.924;2023-02-18T01:50:44;99270.03;;;8.21;45.81
37856;BME280;23694;43.274;26.924;2023-02-18T01:53:14;99272.31;;;8.27;45.74
37856;BME280;23694;43.274;26.924;2023-02-18T01:55:41;99271.09;;;8.35;45.36
37856;BME280;23694;43.274;26.924;2023-02-18T01:58:08;99277.97;;;8.36;45.23
37856;BME280;23694;43.274;26.924;2023-02-18T02:00:34;99281.84;;;8.44;44.97
37856;BME280;23694;43.274;26.924;2023-02-18T02:03:01;99283.16;;;8.53;44.68
37856;BME280;23694;43.274;26.924;2023-02-18T02:05:32;99277.84;;;8.54;44.58
37856;BME280;23694;43.274;26.924;2023-02-18T02:07:59;99271.72;;;8.55;44.51
37856;BME280;23694;43.274;26.924;2023-02-18T02:11:03;99273.91;;;8.63;44.33
37856;BME280;23694;43.274;26.924;2023-02-18T02:13:52;99277.34;;;8.64;44.00
37856;BME280;23694;43.274;26.924;2023-02-18T02:16:41;99275.06;;;8.57;44.29
37856;BME280;23694;43.274;26.924;2023-02-18T02:36:13;99246.31;;;8.42;44.55
37856;BME280;23694;43.274;26.924;2023-02-18T02:41:39;99251.63;;;8.40;44.78
37856;BME280;23694;43.274;26.924;2023-02-18T02:46:44;99239.72;;;8.52;44.08
37856;BME280;23694;43.274;26.924;2023-02-18T02:54:33;99246.69;;;8.51;44.36
37856;BME280;23694;43.274;26.924;2023-02-18T03:00:00;99252.94;;;8.49;44.29
37856;BME280;23694;43.274;26.924;2023-02-18T03:08:17;99239.78;;;8.50;44.00
37856;BME280;23694;43.274;26.924;2023-02-18T03:13:39;99244.66;;;8.56;43.47
37856;BME280;23694;43.274;26.924;2023-02-18T03:18:46;99235.16;;;8.55;43.70
37856;BME280;23694;43.274;26.924;2023-02-18T03:23:56;99235.16;;;8.55;43.29
37856;BME280;23694;43.274;26.924;2023-02-18T03:26:24;99234.31;;;8.55;43.17
37856;BME280;23694;43.274;26.924;2023-02-18T03:28:54;99225.38;;;8.59;43.45
37856;BME280;23694;43.274;26.924;2023-02-18T03:31:24;99227.75;;;8.64;43.32
37856;BME280;23694;43.274;26.924;2023-02-18T03:33:56;99225.97;;;8.64;42.74
37856;BME280;23694;43.274;26.924;2023-02-18T03:36:24;99215.34;;;8.67;43.03
37856;BME280;23694;43.274;26.924;2023-02-18T03:38:59;99221.06;;;8.74;42.50
37856;BME280;23694;43.274;26.924;2023-02-18T03:41:27;99217.63;;;8.73;42.26
37856;BME280;23694;43.274;26.924;2023-02-18T03:43:59;99219.47;;;8.71;42.69
37856;BME280;23694;43.274;26.924;2023-02-18T03:46:27;99229.75;;;8.74;42.59
37856;BME280;23694;43.274;26.924;2023-02-18T03:48:53;99224.78;;;8.70;42.76
37856;BME280;23694;43.274;26.924;2023-02-18T03:51:20;99225.44;;;8.73;42.90
37856;BME280;23694;43.274;26.924;2023-02-18T03:53:46;99223.09;;;8.69;42.49
37856;BME280;23694;43.274;26.924;2023-02-18T03:56:13;99219.13;;;8.77;42.75
37856;BME280;23694;43.274;26.924;2023-02-18T03:58:39;99219.72;;;8.82;42.40
37856;BME280;23694;43.274;26.924;2023-02-18T04:01:05;99211.53;;;8.88;42.09
37856;BME280;23694;43.274;26.924;2023-02-18T04:03:31;99205.75;;;8.98;41.95
37856;BME280;23694;43.274;26.924;2023-02-18T04:05:57;99202.03;;;9.02;41.85
37856;BME280;23694;43.274;26.924;2023-02-18T04:08:24;99205.31;;;9.05;41.58
37856;BME280;23694;43.274;26.924;2023-02-18T04:10:50;99193.28;;;9.03;41.41
37856;BME280;23694;43.274;26.924;2023-02-18T04:13:17;99199.91;;;9.08;41.78
37856;BME280;23694;43.274;26.924;2023-02-18T04:15:44;99203.69;;;9.18;41.42
37856;BME280;23694;43.274;26.924;2023-02-18T04:18:10;99198.97;;;9.25;41.51
37856;BME280;23694;43.274;26.924;2023-02-18T04:20:36;99194.94;;;9.19;41.30
37856;BME280;23694;43.274;26.924;2023-02-18T04:23:03;99197.53;;;9.19;40.80
37856;BME280;23694;43.274;26.924;2023-02-18T04:25:30;99189.47;;;9.08;41.70
37856;BME280;23694;43.274;26.924;2023-02-18T04:27:56;99182.97;;;9.15;41.53
37856;BME280;23694;43.274;26.924;2023-02-18T04:30:22;99171.78;;;9.13;41.54
37856;BME280;23694;43.274;26.924;2023-02-18T04:32:48;99177.84;;;9.14;40.93
37856;BME280;23694;43.274;26.924;2023-02-18T04:35:14;99171.69;;;9.15;41.38
37856;BME280;23694;43.274;26.924;2023-02-18T04:37:40;99165.72;;;9.13;41.38
37856;BME280;23694;43.274;26.924;2023-02-18T04:40:07;99166.38;;;9.16;40.64
37856;BME280;23694;43.274;26.924;2023-02-18T04:42:34;99154.97;;;9.17;41.23
37856;BME280;23694;43.274;26.924;2023-02-18T04:45:00;99162.06;;;9.15;41.06
37856;BME280;23694;43.274;26.924;2023-02-18T04:47:26;99165.34;;;9.19;41.44
37856;BME280;23694;43.274;26.924;2023-02-18T04:49:52;99158.16;;;9.23;40.62
37856;BME280;23694;43.274;26.924;2023-02-18T04:52:19;99148.09;;;9.31;40.83
37856;BME280;23694;43.274;26.924;2023-02-18T04:54:45;99145.09;;;9.37;41.78
37856;BME280;23694;43.274;26.924;2023-02-18T04:57:11;99144.44;;;9.33;42.07
37856;BME280;23694;43.274;26.924;2023-02-18T04:59:37;99145.28;;;9.34;41.71
37856;BME280;23694;43.274;26.924;2023-02-18T05:02:04;99139.59;;;9.41;41.22
37856;BME280;23694;43.274;26.924;2023-02-18T05:04:30;99141.84;;;9.47;40.65
37856;BME280;23694;43.274;26.924;2023-02-18T05:06:56;99141.56;;;9.52;39.61
37856;BME280;23694;43.274;26.924;2023-02-18T05:09:22;99138.19;;;9.64;40.01
37856;BME280;23694;43.274;26.924;2023-02-18T05:11:48;99140.44;;;9.70;38.88
37856;BME280;23694;43.274;26.924;2023-02-18T05:14:14;99144.84;;;9.84;39.00
37856;BME280;23694;43.274;26.924;2023-02-18T05:16:41;99146.13;;;9.91;38.28
37856;BME280;23694;43.274;26.924;2023-02-18T05:19:07;99156.59;;;9.91;38.61
37856;BME280;23694;43.274;26.924;2023-02-18T05:21:33;99147.63;;;9.95;38.14
37856;BME280;23694;43.274;26.924;2023-02-18T05:23:59;99148.91;;;10.02;37.57
37856;BME280;23694;43.274;26.924;2023-02-18T05:26:25;99156.59;;;10.05;37.71
37856;BME280;23694;43.274;26.924;2023-02-18T05:28:51;99146.84;;;10.07;37.48
37856;BME280;23694;43.274;26.924;2023-02-18T05:31:17;99152.56;;;10.00;37.74
37856;BME280;23694;43.274;26.924;2023-02-18T05:33:43;99155.84;;;10.03;37.64
37856;BME280;23694;43.274;26.924;2023-02-18T05:36:09;99142.19;;;9.98;37.55
37856;BME280;23694;43.274;26.924;2023-02-18T05:38:35;99142.66;;;10.05;37.61
37856;BME280;23694;43.274;26.924;2023-02-18T05:41:01;99134.41;;;10.11;37.08
37856;BME280;23694;43.274;26.924;2023-02-18T05:43:27;99134.22;;;10.14;37.43
37856;BME280;23694;43.274;26.924;2023-02-18T05:45:53;99137.59;;;10.16;37.02
37856;BME280;23694;43.274;26.924;2023-02-18T05:48:19;99132.00;;;10.22;36.91
37856;BME280;23694;43.274;26.924;2023-02-18T05:50:45;99126.75;;;10.22;36.92
37856;BME280;23694;43.274;26.924;2023-02-18T05:53:11;99121.31;;;10.25;36.80
37856;BME280;23694;43.274;26.924;2023-02-18T05:55:37;99115.16;;;10.26;36.50
37856;BME280;23694;43.274;26.924;2023-02-18T05:58:04;99130.47;;;10.32;36.49
37856;BME280;23694;43.274;26.924;2023-02-18T06:00:31;99115.50;;;10.34;36.69
37856;BME280;23694;43.274;26.924;2023-02-18T06:02:58;99115.03;;;10.42;36.16
37856;BME280;23694;43.274;26.924;2023-02-18T06:05:24;99102.38;;;10.48;36.10
37856;BME280;23694;43.274;26.924;2023-02-18T06:07:50;99115.91;;;10.55;36.04
37856;BME280;23694;43.274;26.924;2023-02-18T06:10:16;99104.28;;;10.59;36.09
37856;BME280;23694;43.274;26.924;2023-02-18T06:12:43;99121.38;;;10.65;35.95
37856;BME280;23694;43.274;26.924;2023-02-18T06:15:09;99112.16;;;10.72;35.91
37856;BME280;23694;43.274;26.924;2023-02-18T06:17:35;99117.31;;;10.73;35.72
37856;BME280;23694;43.274;26.924;2023-02-18T06:20:01;99122.13;;;10.79;35.68
37856;BME280;23694;43.274;26.924;2023-02-18T06:22:28;99120.06;;;10.85;35.65
37856;BME280;23694;43.274;26.924;2023-02-18T06:24:54;99115.75;;;10.84;35.76
37856;BME280;23694;43.274;26.924;2023-02-18T06:27:20;99118.38;;;10.84;35.43
37856;BME280;23694;43.274;26.924;2023-02-18T06:29:46;99117.03;;;10.91;35.45
37856;BME280;23694;43.274;26.924;2023-02-18T06:32:12;99110.53;;;10.96;35.48
37856;BME280;23694;43.274;26.924;2023-02-18T06:34:38;99106.22;;;10.95;35.25
37856;BME280;23694;43.274;26.924;2023-02-18T06:37:04;99108.13;;;10.93;35.84
37856;BME280;23694;43.274;26.924;2023-02-18T06:39:30;99095.22;;;11.03;35.44
37856;BME280;23694;43.274;26.924;2023-02-18T06:41:56;99101.88;;;11.08;35.73
37856;BME280;23694;43.274;26.924;2023-02-18T06:44:23;99093.91;;;11.10;35.37
37856;BME280;23694;43.274;26.924;2023-02-18T06:46:49;99098.31;;;11.09;35.49
37856;BME280;23694;43.274;26.924;2023-02-18T06:49:15;99101.56;;;11.13;35.47
37856;BME280;23694;43.274;26.924;2023-02-18T06:51:41;99104.81;;;11.17;35.02
37856;BME280;23694;43.274;26.924;2023-02-18T06:54:07;99097.34;;;11.23;35.16
37856;BME280;23694;43.274;26.924;2023-02-18T06:56:33;99107.22;;;11.32;34.91
37856;BME280;23694;43.274;26.924;2023-02-18T06:58:59;99100.59;;;11.39;34.95
37856;BME280;23694;43.274;26.924;2023-02-18T07:01:25;99100.38;;;11.42;35.04
37856;BME280;23694;43.274;26.924;2023-02-18T07:03:51;99097.56;;;11.46;34.94
37856;BME280;23694;43.274;26.924;2023-02-18T07:06:17;99101.84;;;11.47;34.92
37856;BME280;23694;43.274;26.924;2023-02-18T07:08:43;99112.97;;;11.50;35.04
37856;BME280;23694;43.274;26.924;2023-02-18T07:11:09;99107.63;;;11.52;34.94
37856;BME280;23694;43.274;26.924;2023-02-18T07:13:35;99111.06;;;11.65;34.97
37856;BME280;23694;43.274;26.924;2023-02-18T07:16:01;99110.66;;;11.71;35.05
37856;BME280;23694;43.274;26.924;2023-02-18T07:18:27;99103.31;;;11.76;34.81
37856;BME280;23694;43.274;26.924;2023-02-18T07:20:53;99105.31;;;11.85;34.86
37856;BME280;23694;43.274;26.924;2023-02-18T07:23:19;99105.59;;;11.93;34.92
37856;BME280;23694;43.274;26.924;2023-02-18T07:25:46;99108.63;;;12.00;34.64
37856;BME280;23694;43.274;26.924;2023-02-18T07:28:12;99105.78;;;12.03;34.59
37856;BME280;23694;43.274;26.924;2023-02-18T07:30:38;99091.88;;;12.14;34.40
37856;BME280;23694;43.274;26.924;2023-02-18T07:33:05;99097.47;;;12.09;34.69
37856;BME280;23694;43.274;26.924;2023-02-18T07:35:31;99094.38;;;12.15;34.27
37856;BME280;23694;43.274;26.924;2023-02-18T07:37:57;99095.13;;;12.17;34.07
37856;BME280;23694;43.274;26.924;2023-02-18T07:40:23;99085.44;;;12.18;34.20
37856;BME280;23694;43.274;26.924;2023-02-18T07:42:49;99088.47;;;12.24;34.44
37856;BME280;23694;43.274;26.924;2023-02-18T07:45:15;99101.69;;;12.35;33.94
37856;BME280;23694;43.274;26.924;2023-02-18T07:47:42;99101.56;;;12.37;34.20
37856;BME280;23694;43.274;26.924;2023-02-18T07:50:09;99092.19;;;12.46;34.30
37856;BME280;23694;43.274;26.924;2023-02-18T07:52:35;99110.00;;;12.53;34.01
37856;BME280;23694;43.274;26.924;2023-02-18T07:55:01;99109.28;;;12.51;33.78
37856;BME280;23694;43.274;26.924;2023-02-18T07:57:27;99105.69;;;12.52;33.97
37856;BME280;23694;43.274;26.924;2023-02-18T07:59:54;99112.91;;;12.61;33.84
37856;BME280;23694;43.274;26.924;2023-02-18T08:02:21;99103.94;;;12.64;34.01
37856;BME280;23694;43.274;26.924;2023-02-18T08:04:48;99102.31;;;12.74;34.19
37856;BME280;23694;43.274;26.924;2023-02-18T08:07:16;99103.91;;;12.53;34.72
37856;BME280;23694;43.274;26.924;2023-02-18T08:09:42;99107.91;;;12.69;34.38
37856;BME280;23694;43.274;26.924;2023-02-18T08:12:08;99102.19;;;12.76;34.00
37856;BME280;23694;43.274;26.924;2023-02-18T08:14:35;99106.38;;;12.78;34.55
37856;BME280;23694;43.274;26.924;2023-02-18T08:17:01;99110.34;;;12.84;34.52
37856;BME280;23694;43.274;26.924;2023-02-18T08:19:27;99117.97;;;12.76;34.56
37856;BME280;23694;43.274;26.924;2023-02-18T08:21:53;99106.28;;;12.80;34.82
37856;BME280;23694;43.274;26.924;2023-02-18T08:24:19;99101.28;;;12.88;34.68
37856;BME280;23694;43.274;26.924;2023-02-18T08:26:45;99099.03;;;12.94;34.19
37856;BME280;23694;43.274;26.924;2023-02-18T08:29:11;99093.50;;;12.86;34.39
37856;BME280;23694;43.274;26.924;2023-02-18T08:31:37;99089.22;;;12.96;34.25
37856;BME280;23694;43.274;26.924;2023-02-18T08:34:03;99091.06;;;13.07;33.84
37856;BME280;23694;43.274;26.924;2023-02-18T08:36:29;99075.97;;;12.98;33.52
37856;BME280;23694;43.274;26.924;2023-02-18T08:38:56;99073.88;;;13.14;33.85
37856;BME280;23694;43.274;26.924;2023-02-18T08:41:23;99087.06;;;13.25;33.17
37856;BME280;23694;43.274;26.924;2023-02-18T08:43:49;99072.13;;;13.37;33.16
37856;BME280;23694;43.274;26.924;2023-02-18T08:46:15;99076.66;;;13.46;32.80
37856;BME280;23694;43.274;26.924;2023-02-18T08:48:42;99067.69;;;13.49;32.43
37856;BME280;23694;43.274;26.924;2023-02-18T08:51:16;99058.84;;;13.61;32.43
37856;BME280;23694;43.274;26.924;2023-02-18T08:53:43;99064.22;;;13.71;32.18
37856;BME280;23694;43.274;26.924;2023-02-18T08:56:11;99072.72;;;13.74;32.01
37856;BME280;23694;43.274;26.924;2023-02-18T08:58:38;99066.97;;;13.80;31.91
37856;BME280;23694;43.274;26.924;2023-02-18T09:01:05;99053.88;;;14.01;31.77
37856;BME280;23694;43.274;26.924;2023-02-18T09:03:33;99050.47;;;14.21;31.51
37856;BME280;23694;43.274;26.924;2023-02-18T09:06:00;99042.28;;;14.36;31.41
37856;BME280;23694;43.274;26.924;2023-02-18T09:08:26;99045.38;;;14.41;31.44
37856;BME280;23694;43.274;26.924;2023-02-18T09:11:01;99032.56;;;14.47;31.57
37856;BME280;23694;43.274;26.924;2023-02-18T09:13:29;99023.38;;;14.63;31.24
37856;BME280;23694;43.274;26.924;2023-02-18T09:16:01;99035.91;;;14.70;31.25
37856;BME280;23694;43.274;26.924;2023-02-18T09:18:29;99008.47;;;14.73;31.08
37856;BME280;23694;43.274;26.924;2023-02-18T09:20:57;99013.59;;;14.74;31.07
37856;BME280;23694;43.274;26.924;2023-02-18T09:23:25;99013.16;;;14.69;31.35
37856;BME280;23694;43.274;26.924;2023-02-18T09:25:52;99013.47;;;14.76;31.69
37856;BME280;23694;43.274;26.924;2023-02-18T09:28:18;99010.63;;;14.88;31.57
37856;BME280;23694;43.274;26.924;2023-02-18T09:30:44;98994.94;;;14.87;32.07
37856;BME280;23694;43.274;26.924;2023-02-18T09:33:10;99022.28;;;14.65;32.59
37856;BME280;23694;43.274;26.924;2023-02-18T09:35:40;99017.03;;;14.65;32.64
37856;BME280;23694;43.274;26.924;2023-02-18T09:38:09;99022.03;;;14.47;33.11
37856;BME280;23694;43.274;26.924;2023-02-18T09:40:40;99032.13;;;14.63;33.14
37856;BME280;23694;43.274;26.924;2023-02-18T09:43:31;99030.31;;;14.64;33.50
37856;BME280;23694;43.274;26.924;2023-02-18T09:46:00;99039.41;;;14.71;33.37
37856;BME280;23694;43.274;26.924;2023-02-18T09:48:31;99035.41;;;14.76;33.57
37856;BME280;23694;43.274;26.924;2023-02-18T09:50:59;99017.25;;;14.83;33.65
37856;BME280;23694;43.274;26.924;2023-02-18T09:53:25;99027.09;;;14.81;33.94
37856;BME280;23694;43.274;26.924;2023-02-18T09:55:53;99029.81;;;14.70;34.45
37856;BME280;23694;43.274;26.924;2023-02-18T09:58:29;99020.34;;;14.67;35.06
37856;BME280;23694;43.274;26.924;2023-02-18T10:03:45;99027.38;;;14.78;35.42
37856;BME280;23694;43.274;26.924;2023-02-18T10:06:29;99029.28;;;14.76;35.26
37856;BME280;23694;43.274;26.924;2023-02-18T10:08:57;99034.88;;;14.82;34.69
37856;BME280;23694;43.274;26.924;2023-02-18T10:11:31;99029.22;;;14.87;35.30
37856;BME280;23694;43.274;26.924;2023-02-18T10:13:58;99027.44;;;14.87;35.38
37856;BME280;23694;43.274;26.924;2023-02-18T10:16:26;99023.50;;;14.82;35.53
37856;BME280;23694;43.274;26.924;2023-02-18T10:18:57;99035.03;;;14.81;35.33
37856;BME280;23694;43.274;26.924;2023-02-18T10:21:28;99036.56;;;14.83;35.22
37856;BME280;23694;43.274;26.924;2023-02-18T10:26:57;99028.47;;;14.75;35.19
37856;BME280;23694;43.274;26.924;2023-02-18T10:29:24;99007.75;;;14.71;35.50
37856;BME280;23694;43.274;26.924;2023-02-18T10:32:05;98991.03;;;14.81;35.39
37856;BME280;23694;43.274;26.924;2023-02-18T10:34:39;99012.19;;;14.91;35.32
37856;BME280;23694;43.274;26.924;2023-02-18T10:37:22;99015.06;;;14.88;35.34
37856;BME280;23694;43.274;26.924;2023-02-18T10:48:35;99000.78;;;15.11;35.25
37856;BME280;23694;43.274;26.924;2023-02-18T10:51:22;98989.78;;;15.06;34.98
37856;BME280;23694;43.274;26.924;2023-02-18T10:53:51;98988.44;;;14.91;35.52
37856;BME280;23694;43.274;26.924;2023-02-18T10:56:40;98982.28;;;15.02;35.45
37856;BME280;23694;43.274;26.924;2023-02-18T10:59:26;98981.09;;;15.15;35.59
37856;BME280;23694;43.274;26.924;2023-02-18T11:02:09;98986.22;;;15.17;35.55
37856;BME280;23694;43.274;26.924;2023-02-18T11:04:40;98973.84;;;15.08;35.50
37856;BME280;23694;43.274;26.924;2023-02-18T11:07:20;98967.31;;;15.12;35.37
37856;BME280;23694;43.274;26.924;2023-02-18T11:12:45;98959.03;;;15.26;35.35
37856;BME280;23694;43.274;26.924;2023-02-18T11:15:21;98969.31;;;15.29;35.72
37856;BME280;23694;43.274;26.924;2023-02-18T11:17:51;98959.53;;;15.50;35.48
37856;BME280;23694;43.274;26.924;2023-02-18T11:20:31;98963.78;;;15.63;35.46
37856;BME280;23694;43.274;26.924;2023-02-18T11:23:22;98957.53;;;15.73;35.34
37856;BME280;23694;43.274;26.924;2023-02-18T11:26:12;98956.72;;;15.82;35.46
37856;BME280;23694;43.274;26.924;2023-02-18T11:28:45;98961.84;;;15.84;35.55
37856;BME280;23694;43.274;26.924;2023-02-18T11:31:21;98959.47;;;15.71;35.85
37856;BME280;23694;43.274;26.924;2023-02-18T11:33:54;98963.25;;;15.78;35.99
37856;BME280;23694;43.274;26.924;2023-02-18T11:36:28;98971.16;;;15.78;35.89
37856;BME280;23694;43.274;26.924;2023-02-18T11:38:57;98961.31;;;15.80;35.74
37856;BME280;23694;43.274;26.924;2023-02-18T11:41:33;98956.16;;;15.79;35.82
37856;BME280;23694;43.274;26.924;2023-02-18T11:44:01;98950.72;;;15.71;35.78
37856;BME280;23694;43.274;26.924;2023-02-18T11:46:29;98954.34;;;15.89;35.39
37856;BME280;23694;43.274;26.924;2023-02-18T11:49:11;98939.63;;;16.06;35.69
37856;BME280;23694;43.274;26.924;2023-02-18T11:51:47;98946.16;;;16.40;34.98
37856;BME280;23694;43.274;26.924;2023-02-18T11:54:24;98926.81;;;16.40;35.27
37856;BME280;23694;43.274;26.924;2023-02-18T11:59:25;98927.81;;;16.29;35.88
37856;BME280;23694;43.274;26.924;2023-02-18T12:09:37;98921.41;;;16.12;36.63
37856;BME280;23694;43.274;26.924;2023-02-18T12:12:16;98906.78;;;16.18;36.79
37856;BME280;23694;43.274;26.924;2023-02-18T12:14:44;98905.41;;;15.95;37.33
37856;BME280;23694;43.274;26.924;2023-02-18T12:23:13;98894.16;;;15.93;37.90
37856;BME280;23694;43.274;26.924;2023-02-18T12:25:47;98903.75;;;15.84;38.41
37856;BME280;23694;43.274;26.924;2023-02-18T12:47:41;98904.88;;;15.91;38.58
37856;BME280;23694;43.274;26.924;2023-02-18T12:55:46;98906.91;;;15.59;39.74
37856;BME280;23694;43.274;26.924;2023-02-18T13:09:13;98900.38;;;15.03;41.16
37856;BME280;23694;43.274;26.924;2023-02-18T13:11:56;98895.56;;;15.18;40.87
37856;BME280;23694;43.274;26.924;2023-02-18T13:14:28;98885.28;;;15.15;40.98
37856;BME280;23694;43.274;26.924;2023-02-18T13:16:58;98887.75;;;15.07;41.05
37856;BME280;23694;43.274;26.924;2023-02-18T13:19:33;98895.16;;;14.92;41.19
37856;BME280;23694;43.274;26.924;2023-02-18T13:22:03;98900.16;;;14.85;41.58
37856;BME280;23694;43.274;26.924;2023-02-18T13:24:38;98906.50;;;14.83;41.57
37856;BME280;23694;43.274;26.924;2023-02-18T13:32:41;98899.94;;;14.68;42.11
37856;BME280;23694;43.274;26.924;2023-02-18T13:40:59;98888.72;;;14.75;42.11
37856;BME280;23694;43.274;26.924;2023-02-18T13:43:31;98896.81;;;14.83;41.61
37856;BME280;23694;43.274;26.924;2023-02-18T13:48:42;98901.09;;;14.84;42.29
37856;BME280;23694;43.274;26.924;2023-02-18T13:51:11;98891.66;;;14.82;42.13
37856;BME280;23694;43.274;26.924;2023-02-18T13:53:42;98909.56;;;14.78;42.26
37856;BME280;23694;43.274;26.924;2023-02-18T13:56:09;98901.69;;;14.88;41.91
37856;BME280;23694;43.274;26.924;2023-02-18T13:58:53;98889.00;;;14.72;42.07
37856;BME280;23694;43.274;26.924;2023-02-18T14:01:24;98896.75;;;14.74;41.71
37856;BME280;23694;43.274;26.924;2023-02-18T14:03:58;98886.53;;;14.80;42.36
37856;BME280;23694;43.274;26.924;2023-02-18T14:06:28;98879.09;;;14.65;42.47
37856;BME280;23694;43.274;26.924;2023-02-18T14:09:36;98890.91;;;14.70;42.53
37856;BME280;23694;43.274;26.924;2023-02-18T14:14:50;98896.72;;;14.64;42.48
37856;BME280;23694;43.274;26.924;2023-02-18T14:19:53;98884.34;;;14.55;42.63
37856;BME280;23694;43.274;26.924;2023-02-18T14:22:46;98869.94;;;14.38;42.98
37856;BME280;23694;43.274;26.924;2023-02-18T14:27:40;98886.72;;;14.37;43.05
37856;BME280;23694;43.274;26.924;2023-02-18T14:30:19;98889.59;;;14.34;43.41
37856;BME280;23694;43.274;26.924;2023-02-18T14:32:51;98888.53;;;14.25;43.41
37856;BME280;23694;43.274;26.924;2023-02-18T14:35:42;98896.00;;;14.20;43.81
37856;BME280;23694;43.274;26.924;2023-02-18T14:38:24;98889.19;;;14.18;44.06
37856;BME280;23694;43.274;26.924;2023-02-18T14:41:19;98889.31;;;14.16;44.03
37856;BME280;23694;43.274;26.924;2023-02-18T14:49:43;98870.63;;;13.99;44.52
37856;BME280;23694;43.274;26.924;2023-02-18T14:52:42;98880.19;;;14.00;45.09
37856;BME280;23694;43.274;26.924;2023-02-18T14:55:25;98884.75;;;13.98;44.74
37856;BME280;23694;43.274;26.924;2023-02-18T14:58:06;98881.03;;;14.00;44.62
37856;BME280;23694;43.274;26.924;2023-02-18T15:00:38;98892.16;;;14.04;44.58
37856;BME280;23694;43.274;26.924;2023-02-18T15:03:12;98879.88;;;13.93;44.66
37856;BME280;23694;43.274;26.924;2023-02-18T15:05:39;98877.50;;;13.90;44.83
37856;BME280;23694;43.274;26.924;2023-02-18T15:08:17;98885.41;;;13.90;44.88
37856;BME280;23694;43.274;26.924;2023-02-18T15:10:44;98877.19;;;13.83;45.32
37856;BME280;23694;43.274;26.924;2023-02-18T15:13:39;98872.88;;;13.82;45.19
37856;BME280;23694;43.274;26.924;2023-02-18T15:16:15;98877.88;;;13.85;45.54
37856;BME280;23694;43.274;26.924;2023-02-18T15:18:48;98873.63;;;13.73;45.59
37856;BME280;23694;43.274;26.924;2023-02-18T15:21:32;98878.63;;;13.76;45.75
37856;BME280;23694;43.274;26.924;2023-02-18T15:26:46;98854.38;;;13.61;46.10
37856;BME280;23694;43.274;26.924;2023-02-18T15:29:18;98865.84;;;13.40;46.85
37856;BME280;23694;43.274;26.924;2023-02-18T15:31:46;98859.69;;;13.50;49.25